createdAt,value
2018-12-09T00:00:23.327Z,32.36
2018-12-09T00:02:51.974Z,32.03
2018-12-09T00:05:20.804Z,32.08
2018-12-09T00:07:49.516Z,31.95
2018-12-09T00:10:18.123Z,32.53
2018-12-09T00:12:46.819Z,31.91
2018-12-09T00:15:15.414Z,32.13
2018-12-09T00:17:44.126Z,32.53
2018-12-09T00:20:12.767Z,31.95
2018-12-09T00:22:41.327Z,32.01
2018-12-09T00:25:09.918Z,32.58
2018-12-09T00:27:38.593Z,32.21
2018-12-09T00:30:07.211Z,32.63
2018-12-09T00:32:35.894Z,31.80
2018-12-09T00:35:04.318Z,32.02
2018-12-09T00:37:33.090Z,32.51
2018-12-09T00:40:01.597Z,31.81
2018-12-09T00:42:30.266Z,32.61
2018-12-09T00:44:58.828Z,32.59
2018-12-09T00:47:27.330Z,32.40
2018-12-09T00:49:55.949Z,32.15
2018-12-09T00:52:24.518Z,32.53
2018-12-09T00:54:53.131Z,32.53
2018-12-09T00:57:21.867Z,31.86
2018-12-09T00:59:50.287Z,31.87
2018-12-09T01:02:18.960Z,31.79
2018-12-09T01:04:47.406Z,32.63
2018-12-09T01:07:16.039Z,31.60
2018-12-09T01:09:44.830Z,32.29
2018-12-09T01:12:13.450Z,31.91
2018-12-09T01:14:41.933Z,31.70
2018-12-09T01:17:11.162Z,32.22
2018-12-09T01:19:39.718Z,32.32
2018-12-09T01:22:08.479Z,32.36
2018-12-09T01:24:37.132Z,31.53
2018-12-09T01:27:05.692Z,31.90
2018-12-09T01:29:34.167Z,31.67
2018-12-09T01:32:02.895Z,31.71
2018-12-09T01:34:31.426Z,31.62
2018-12-09T01:36:59.871Z,31.83
2018-12-09T01:39:28.339Z,32.33
2018-12-09T01:41:57.550Z,31.47
2018-12-09T01:44:27.062Z,31.59
2018-12-09T01:46:56.064Z,31.68
2018-12-09T01:49:24.618Z,32.27
2018-12-09T01:51:53.266Z,32.41
2018-12-09T01:54:21.769Z,31.75
2018-12-09T01:56:50.278Z,32.20
2018-12-09T01:59:19.016Z,31.52
2018-12-09T02:01:47.663Z,32.15
2018-12-09T02:04:16.370Z,32.22
2018-12-09T02:06:44.987Z,31.96
2018-12-09T02:09:13.535Z,32.19
2018-12-09T02:11:42.132Z,31.56
2018-12-09T02:14:10.566Z,32.12
2018-12-09T02:16:39.020Z,31.87
2018-12-09T02:19:18.907Z,32.28
2018-12-09T02:21:47.878Z,32.12
2018-12-09T02:24:17.082Z,32.19
2018-12-09T02:26:45.559Z,31.99
2018-12-09T02:29:14.318Z,31.66
2018-12-09T02:31:43.017Z,31.66
2018-12-09T02:34:11.458Z,32.10
2018-12-09T02:36:40.311Z,31.59
2018-12-09T02:39:10.278Z,32.06
2018-12-09T02:41:38.726Z,31.61
2018-12-09T02:44:07.344Z,32.16
2018-12-09T02:46:36.319Z,32.18
2018-12-09T02:49:04.953Z,31.56
2018-12-09T02:51:33.638Z,32.10
2018-12-09T02:54:02.130Z,32.22
2018-12-09T02:56:30.800Z,32.18
2018-12-09T02:58:59.654Z,31.45
2018-12-09T03:01:28.355Z,31.57
2018-12-09T03:03:56.807Z,31.42
2018-12-09T03:06:25.494Z,32.15
2018-12-09T03:08:54.659Z,32.01
2018-12-09T03:11:23.082Z,31.81
2018-12-09T03:13:51.751Z,31.63
2018-12-09T03:16:20.322Z,32.10
2018-12-09T03:18:50.394Z,32.09
2018-12-09T03:21:19.388Z,32.04
2018-12-09T03:23:47.997Z,32.21
2018-12-09T03:26:16.614Z,32.10
2018-12-09T03:28:45.545Z,31.92
2018-12-09T03:31:14.917Z,31.75
2018-12-09T03:33:43.519Z,31.71
2018-12-09T03:36:12.160Z,31.49
2018-12-09T03:38:40.891Z,31.42
2018-12-09T03:41:09.395Z,31.61
2018-12-09T03:43:37.846Z,32.13
2018-12-09T03:46:06.611Z,32.38
2018-12-09T03:48:35.155Z,32.36
2018-12-09T03:51:03.844Z,32.54
2018-12-09T03:53:32.612Z,32.28
2018-12-09T03:56:01.055Z,32.30
2018-12-09T03:58:29.611Z,31.75
2018-12-09T04:00:58.049Z,31.84
2018-12-09T04:03:26.762Z,32.22
2018-12-09T04:05:55.510Z,32.37
2018-12-09T04:08:24.148Z,31.60
2018-12-09T04:10:52.719Z,31.71
2018-12-09T04:13:21.963Z,32.21
2018-12-09T04:15:50.425Z,32.09
2018-12-09T04:18:19.187Z,31.72
2018-12-09T04:20:47.936Z,32.17
2018-12-09T04:23:16.568Z,31.73
2018-12-09T04:25:45.193Z,31.69
2018-12-09T04:28:14.251Z,32.15
2018-12-09T04:30:42.704Z,32.19
2018-12-09T04:33:11.451Z,31.62
2018-12-09T04:35:40.190Z,31.67
2018-12-09T04:38:08.848Z,32.28
2018-12-09T04:40:37.519Z,31.67
2018-12-09T04:43:06.002Z,32.15
2018-12-09T04:45:34.543Z,32.18
2018-12-09T04:48:03.303Z,31.98
2018-12-09T04:50:32.054Z,31.66
2018-12-09T04:53:00.612Z,32.14
2018-12-09T04:55:29.374Z,32.16
2018-12-09T04:57:57.922Z,32.03
2018-12-09T05:00:37.323Z,31.77
2018-12-09T05:03:05.918Z,32.21
2018-12-09T05:05:34.378Z,31.47
2018-12-09T05:08:03.051Z,31.56
2018-12-09T05:10:31.611Z,32.38
2018-12-09T05:13:00.243Z,32.03
2018-12-09T05:15:28.853Z,31.51
2018-12-09T05:17:57.598Z,32.27
2018-12-09T05:20:26.818Z,32.09
2018-12-09T05:22:55.245Z,32.08
2018-12-09T05:25:24.251Z,31.63
2018-12-09T05:27:52.710Z,31.50
2018-12-09T05:30:21.342Z,31.51
2018-12-09T05:32:49.940Z,32.09
2018-12-09T05:35:19.175Z,31.60
2018-12-09T05:37:47.915Z,32.16
2018-12-09T05:40:16.400Z,31.66
2018-12-09T05:42:44.965Z,31.62
2018-12-09T05:45:13.481Z,31.38
2018-12-09T05:47:42.174Z,31.58
2018-12-09T05:50:10.798Z,32.16
2018-12-09T05:52:39.532Z,32.07
2018-12-09T05:55:08.214Z,31.50
2018-12-09T05:57:36.640Z,32.13
2018-12-09T06:00:05.402Z,31.71
2018-12-09T06:02:45.111Z,32.00
2018-12-09T06:05:13.649Z,32.15
2018-12-09T06:07:42.310Z,32.05
2018-12-09T06:10:10.890Z,31.67
2018-12-09T06:12:39.638Z,32.20
2018-12-09T06:15:08.270Z,31.60
2018-12-09T06:17:36.950Z,32.21
2018-12-09T06:20:05.634Z,32.28
2018-12-09T06:22:34.322Z,31.80
2018-12-09T06:25:03.170Z,31.66
2018-12-09T06:27:31.757Z,32.13
2018-12-09T06:30:00.389Z,32.22
2018-12-09T06:32:29.253Z,31.65
2018-12-09T06:34:57.806Z,31.64
2018-12-09T06:37:26.474Z,31.53
2018-12-09T06:40:06.130Z,31.57
2018-12-09T06:42:35.234Z,31.56
2018-12-09T06:45:03.854Z,31.64
2018-12-09T06:47:32.348Z,31.90
2018-12-09T06:50:00.779Z,31.53
2018-12-09T06:52:29.326Z,31.47
2018-12-09T06:54:58.694Z,31.94
2018-12-09T06:57:27.491Z,32.16
2018-12-09T06:59:56.144Z,32.19
2018-12-09T07:02:24.910Z,32.19
2018-12-09T07:04:53.338Z,32.13
2018-12-09T07:07:22.213Z,31.44
2018-12-09T07:09:50.718Z,31.50
2018-12-09T07:12:19.347Z,32.22
2018-12-09T07:14:47.965Z,32.03
2018-12-09T07:17:16.659Z,32.17
2018-12-09T07:19:45.357Z,31.63
2018-12-09T07:22:13.790Z,32.05
2018-12-09T07:24:42.518Z,32.01
2018-12-09T07:27:10.947Z,32.08
2018-12-09T07:29:39.828Z,32.07
2018-12-09T07:32:08.558Z,32.19
2018-12-09T07:34:36.985Z,31.71
2018-12-09T07:37:06.376Z,31.50
2018-12-09T07:39:35.090Z,32.22
2018-12-09T07:42:03.531Z,32.19
2018-12-09T07:44:31.958Z,32.17
2018-12-09T07:47:00.827Z,32.03
2018-12-09T07:49:29.354Z,31.44
2018-12-09T07:51:57.785Z,32.01
2018-12-09T07:54:26.815Z,31.51
2018-12-09T07:56:55.246Z,31.57
2018-12-09T07:59:23.914Z,32.07
2018-12-09T08:01:52.542Z,32.15
2018-12-09T08:04:21.642Z,31.52
2018-12-09T08:06:50.190Z,32.07
2018-12-09T08:09:18.707Z,32.03
2018-12-09T08:11:47.260Z,31.27
2018-12-09T08:14:15.959Z,31.77
2018-12-09T08:16:44.514Z,32.16
2018-12-09T08:19:12.946Z,31.60
2018-12-09T08:21:41.605Z,32.07
2018-12-09T08:24:10.188Z,32.10
2018-12-09T08:26:38.739Z,31.59
2018-12-09T08:29:07.158Z,32.17
2018-12-09T08:31:36.678Z,31.50
2018-12-09T08:34:05.307Z,32.45
2018-12-09T08:36:33.867Z,32.17
2018-12-09T08:39:02.503Z,31.68
2018-12-09T08:41:31.210Z,31.67
2018-12-09T08:43:59.782Z,32.16
2018-12-09T08:46:28.476Z,31.68
2018-12-09T08:48:57.331Z,32.24
2018-12-09T08:51:26.635Z,31.82
2018-12-09T08:53:55.238Z,31.90
2018-12-09T08:56:23.997Z,32.31
2018-12-09T08:58:52.651Z,31.81
2018-12-09T09:01:21.235Z,31.70
2018-12-09T09:03:50.696Z,32.15
2018-12-09T09:06:19.234Z,31.70
2018-12-09T09:08:47.985Z,32.19
2018-12-09T09:11:16.434Z,31.88
2018-12-09T09:13:45.102Z,31.71
2018-12-09T09:16:13.619Z,31.69
2018-12-09T09:18:42.430Z,32.34
2018-12-09T09:21:11.001Z,31.73
2018-12-09T09:23:39.579Z,32.05
2018-12-09T09:26:08.171Z,32.49
2018-12-09T09:28:36.751Z,32.11
2018-12-09T09:31:05.233Z,31.77
2018-12-09T09:33:33.946Z,32.58
2018-12-09T09:36:02.393Z,32.47
2018-12-09T09:38:30.977Z,32.52
2018-12-09T09:40:59.707Z,32.52
2018-12-09T09:43:28.287Z,32.50
2018-12-09T09:45:56.964Z,32.00
2018-12-09T09:48:25.823Z,32.22
2018-12-09T09:50:54.390Z,31.92
2018-12-09T09:53:23.135Z,31.87
2018-12-09T09:55:51.702Z,32.35
2018-12-09T09:58:20.499Z,31.86
2018-12-09T10:00:49.258Z,32.54
2018-12-09T10:03:25.710Z,32.40
2018-12-09T10:05:48.706Z,31.89
2018-12-09T10:08:17.341Z,31.89
2018-12-09T10:10:45.914Z,32.66
2018-12-09T10:13:14.530Z,32.47
2018-12-09T10:15:43.190Z,32.20
2018-12-09T10:18:11.693Z,32.49
2018-12-09T10:20:40.578Z,31.91
2018-12-09T10:23:09.193Z,32.48
2018-12-09T10:25:37.738Z,32.02
2018-12-09T10:28:06.683Z,32.65
2018-12-09T10:30:35.285Z,32.06
2018-12-09T10:33:03.954Z,32.66
2018-12-09T10:35:32.670Z,32.05
2018-12-09T10:38:01.616Z,32.72
2018-12-09T10:40:30.166Z,32.05
2018-12-09T10:42:58.798Z,32.70
2018-12-09T10:45:27.622Z,32.52
2018-12-09T10:47:56.270Z,32.48
2018-12-09T10:50:24.782Z,32.00
2018-12-09T10:52:53.261Z,32.44
2018-12-09T10:55:21.691Z,32.03
2018-12-09T10:57:50.259Z,31.97
2018-12-09T11:00:22.978Z,31.87
2018-12-09T11:02:52.242Z,32.67
2018-12-09T11:05:20.836Z,32.68
2018-12-09T11:07:49.542Z,31.99
2018-12-09T11:10:17.962Z,32.49
2018-12-09T11:12:46.583Z,32.66
2018-12-09T11:15:15.274Z,31.88
2018-12-09T11:17:43.698Z,32.56
2018-12-09T11:20:12.382Z,31.94
2018-12-09T11:22:42.915Z,32.20
2018-12-09T11:25:11.779Z,32.64
2018-12-09T11:27:40.450Z,32.56
2018-12-09T11:30:09.231Z,31.97
2018-12-09T11:32:37.956Z,32.55
2018-12-09T11:35:06.603Z,32.26
2018-12-09T11:37:35.802Z,31.84
2018-12-09T11:40:05.296Z,33.26
2018-12-09T11:42:33.843Z,33.03
2018-12-09T11:45:02.262Z,33.12
2018-12-09T11:47:31.345Z,33.23
2018-12-09T11:50:00.015Z,32.83
2018-12-09T11:52:29.166Z,32.29
2018-12-09T11:54:57.722Z,32.78
2018-12-09T11:57:26.387Z,32.19
2018-12-09T11:59:55.043Z,45.66
2018-12-09T12:02:23.815Z,62.22
2018-12-09T12:04:52.314Z,57.20
2018-12-09T12:07:20.899Z,50.51
2018-12-09T12:09:49.810Z,46.55
2018-12-09T12:12:18.752Z,42.32
2018-12-09T12:14:47.386Z,44.49
2018-12-09T12:17:15.814Z,46.02
2018-12-09T12:19:44.751Z,42.94
2018-12-09T12:22:13.384Z,43.28
2018-12-09T12:24:41.952Z,41.95
2018-12-09T12:27:10.823Z,42.22
2018-12-09T12:29:39.655Z,43.31
2018-12-09T12:32:08.146Z,43.16
2018-12-09T12:34:36.753Z,43.31
2018-12-09T12:37:05.194Z,43.96
2018-12-09T12:39:34.027Z,43.55
2018-12-09T12:42:02.583Z,42.99
2018-12-09T12:44:31.108Z,42.41
2018-12-09T12:46:59.567Z,42.46
2018-12-09T12:49:28.530Z,42.50
2018-12-09T12:51:56.986Z,42.50
2018-12-09T12:54:25.584Z,41.80
2018-12-09T12:56:54.153Z,41.48
2018-12-09T12:59:22.859Z,41.82
2018-12-09T13:01:51.386Z,41.96
2018-12-09T13:04:19.854Z,41.84
2018-12-09T13:06:48.494Z,41.44
2018-12-09T13:09:17.467Z,40.96
2018-12-09T13:11:46.014Z,40.94
2018-12-09T13:14:14.614Z,40.37
2018-12-09T13:16:43.198Z,40.89
2018-12-09T13:19:12.015Z,40.55
2018-12-09T13:21:40.658Z,40.69
2018-12-09T13:24:09.218Z,39.94
2018-12-09T13:26:37.760Z,39.73
2018-12-09T13:29:06.364Z,39.75
2018-12-09T13:31:34.918Z,39.82
2018-12-09T13:34:03.367Z,39.98
2018-12-09T13:36:31.922Z,39.69
2018-12-09T13:39:00.591Z,38.94
2018-12-09T13:41:29.495Z,39.70
2018-12-09T13:43:57.928Z,39.83
2018-12-09T13:46:26.479Z,38.97
2018-12-09T13:48:55.534Z,38.90
2018-12-09T13:51:24.070Z,39.13
2018-12-09T13:53:52.522Z,38.54
2018-12-09T13:56:21.202Z,38.93
2018-12-09T13:58:50.274Z,38.83
2018-12-09T14:01:18.822Z,38.29
2018-12-09T14:03:47.274Z,38.00
2018-12-09T14:06:15.750Z,38.40
2018-12-09T14:08:44.580Z,38.07
2018-12-09T14:11:13.080Z,37.72
2018-12-09T14:13:41.515Z,37.66
2018-12-09T14:16:10.079Z,38.07
2018-12-09T14:18:39.047Z,38.17
2018-12-09T14:21:07.491Z,37.71
2018-12-09T14:23:36.087Z,37.88
2018-12-09T14:26:04.583Z,37.34
2018-12-09T14:28:33.306Z,37.17
2018-12-09T14:31:01.858Z,37.77
2018-12-09T14:33:30.642Z,37.01
2018-12-09T14:35:59.182Z,36.78
2018-12-09T14:38:27.834Z,36.86
2018-12-09T14:40:56.534Z,37.27
2018-12-09T14:43:25.603Z,37.15
2018-12-09T14:45:54.271Z,36.51
2018-12-09T14:48:22.998Z,36.57
2018-12-09T14:50:51.628Z,36.94
2018-12-09T14:53:20.327Z,36.90
2018-12-09T14:55:49.794Z,36.24
2018-12-09T14:58:18.421Z,36.90
2018-12-09T15:00:46.887Z,36.10
2018-12-09T15:03:15.735Z,36.89
2018-12-09T15:05:44.184Z,36.65
2018-12-09T15:08:13.183Z,36.67
2018-12-09T15:10:41.878Z,36.29
2018-12-09T15:13:10.514Z,36.44
2018-12-09T15:15:38.948Z,35.95
2018-12-09T15:18:07.730Z,35.92
2018-12-09T15:20:36.231Z,36.26
2018-12-09T15:23:04.978Z,35.67
2018-12-09T15:25:33.786Z,36.15
2018-12-09T15:28:02.530Z,36.10
2018-12-09T15:30:31.101Z,36.20
2018-12-09T15:32:59.870Z,36.04
2018-12-09T15:35:28.487Z,35.31
2018-12-09T15:37:57.147Z,35.91
2018-12-09T15:40:25.795Z,35.85
2018-12-09T15:42:54.276Z,35.13
2018-12-09T15:45:23.135Z,35.82
2018-12-09T15:47:51.753Z,35.73
2018-12-09T15:50:20.414Z,35.70
2018-12-09T15:52:48.846Z,34.99
2018-12-09T15:55:17.518Z,35.02
2018-12-09T15:57:46.198Z,35.04
2018-12-09T16:00:14.762Z,35.01
2018-12-09T16:02:43.539Z,34.83
2018-12-09T16:05:12.002Z,35.43
2018-12-09T16:07:40.611Z,34.59
2018-12-09T16:10:10.657Z,35.34
2018-12-09T16:12:39.274Z,35.12
2018-12-09T16:15:07.954Z,35.03
2018-12-09T16:17:36.427Z,35.10
2018-12-09T16:20:05.797Z,35.04
2018-12-09T16:22:34.226Z,35.01
2018-12-09T16:25:02.760Z,35.00
2018-12-09T16:27:31.307Z,35.01
2018-12-09T16:29:59.895Z,34.48
2018-12-09T16:32:28.574Z,35.07
2018-12-09T16:34:57.205Z,34.73
2018-12-09T16:37:25.836Z,34.08
2018-12-09T16:39:54.557Z,34.25
2018-12-09T16:42:23.007Z,34.46
2018-12-09T16:44:51.638Z,34.15
2018-12-09T16:47:20.494Z,34.69
2018-12-09T16:49:49.142Z,34.11
2018-12-09T16:52:17.892Z,34.16
2018-12-09T16:54:46.478Z,34.40
2018-12-09T16:57:14.955Z,34.43
2018-12-09T16:59:43.614Z,33.82
2018-12-09T17:02:12.138Z,34.55
2018-12-09T17:04:40.704Z,33.75
2018-12-09T17:07:09.282Z,33.99
2018-12-09T17:09:38.022Z,33.56
2018-12-09T17:12:06.555Z,34.32
2018-12-09T17:14:35.218Z,34.23
2018-12-09T17:17:03.819Z,34.17
2018-12-09T17:19:32.546Z,34.29
2018-12-09T17:22:00.973Z,34.44
2018-12-09T17:24:29.419Z,33.85
2018-12-09T17:26:57.878Z,33.86
2018-12-09T17:29:26.414Z,33.47
2018-12-09T17:31:55.230Z,33.89
2018-12-09T17:34:23.794Z,33.46
2018-12-09T17:36:52.419Z,34.00
2018-12-09T17:39:21.266Z,33.30
2018-12-09T17:41:49.819Z,33.97
2018-12-09T17:44:18.257Z,33.42
2018-12-09T17:46:47.004Z,33.95
2018-12-09T17:49:15.923Z,33.84
2018-12-09T17:51:44.531Z,33.34
2018-12-09T17:54:13.246Z,33.53
2018-12-09T17:56:42.011Z,33.28
2018-12-09T17:59:10.588Z,33.09
2018-12-09T18:01:39.234Z,33.76
2018-12-09T18:04:07.783Z,33.01
2018-12-09T18:06:36.350Z,32.87
2018-12-09T18:09:05.882Z,32.92
2018-12-09T18:11:34.571Z,33.66
2018-12-09T18:14:03.062Z,33.73
2018-12-09T18:16:31.842Z,33.15
2018-12-09T18:19:00.546Z,33.60
2018-12-09T18:21:29.220Z,33.05
2018-12-09T18:23:58.098Z,33.66
2018-12-09T18:26:26.875Z,32.77
2018-12-09T18:28:55.862Z,33.22
2018-12-09T18:31:24.487Z,33.52
2018-12-09T18:33:53.526Z,33.56
2018-12-09T18:36:21.982Z,33.60
2018-12-09T18:38:50.814Z,33.58
2018-12-09T18:41:19.402Z,33.39
2018-12-09T18:43:47.950Z,33.39
2018-12-09T18:46:16.614Z,32.84
2018-12-09T18:48:45.570Z,33.41
2018-12-09T18:51:14.438Z,32.82
2018-12-09T18:53:43.470Z,33.26
2018-12-09T18:56:12.442Z,32.94
2018-12-09T18:58:41.031Z,33.21
2018-12-09T19:01:09.670Z,32.51
2018-12-09T19:03:38.231Z,32.61
2018-12-09T19:06:06.718Z,32.60
2018-12-09T19:08:35.784Z,33.16
2018-12-09T19:11:04.419Z,33.22
2018-12-09T19:13:33.322Z,33.21
2018-12-09T19:16:02.063Z,32.71
2018-12-09T19:18:30.914Z,33.21
2018-12-09T19:20:59.546Z,32.96
2018-12-09T19:23:28.126Z,32.50
2018-12-09T19:25:58.043Z,32.53
2018-12-09T19:28:27.086Z,33.07
2018-12-09T19:30:55.843Z,32.96
2018-12-09T19:33:24.599Z,32.86
2018-12-09T19:35:53.168Z,33.09
2018-12-09T19:38:22.095Z,32.90
2018-12-09T19:40:51.118Z,32.33
2018-12-09T19:43:19.802Z,32.24
2018-12-09T19:45:48.790Z,32.89
2018-12-09T19:48:17.664Z,32.77
2018-12-09T19:50:46.370Z,32.90
2018-12-09T19:53:15.195Z,32.21
2018-12-09T19:55:43.982Z,32.82
2018-12-09T19:58:12.702Z,32.87
2018-12-09T20:00:41.378Z,33.47
2018-12-09T20:03:10.043Z,32.83
2018-12-09T20:05:38.570Z,33.68
2018-12-09T20:08:07.302Z,32.93
2018-12-09T20:10:35.858Z,33.35
2018-12-09T20:13:04.543Z,33.76
2018-12-09T20:15:33.158Z,32.76
2018-12-09T20:18:01.726Z,32.74
2018-12-09T20:20:30.450Z,33.66
2018-12-09T20:22:59.249Z,32.82
2018-12-09T20:25:27.894Z,33.31
2018-12-09T20:27:56.518Z,33.47
2018-12-09T20:30:25.161Z,33.08
2018-12-09T20:32:53.595Z,33.58
2018-12-09T20:35:22.251Z,33.22
2018-12-09T20:37:50.930Z,32.69
2018-12-09T20:40:19.472Z,33.33
2018-12-09T20:42:48.359Z,32.63
2018-12-09T20:45:17.354Z,33.75
2018-12-09T20:47:45.978Z,33.05
2018-12-09T20:50:14.751Z,33.34
2018-12-09T20:52:43.441Z,32.54
2018-12-09T20:55:12.126Z,33.39
2018-12-09T20:57:40.561Z,32.70
2018-12-09T21:00:09.575Z,32.57
2018-12-09T21:02:38.246Z,32.95
2018-12-09T21:05:06.964Z,33.01
2018-12-09T21:07:35.763Z,32.29
2018-12-09T21:10:05.082Z,32.71
2018-12-09T21:12:33.750Z,32.90
2018-12-09T21:15:02.334Z,32.62
2018-12-09T21:17:30.927Z,32.09
2018-12-09T21:19:59.527Z,32.17
2018-12-09T21:22:28.146Z,32.69
2018-12-09T21:24:56.759Z,32.16
2018-12-09T21:27:25.503Z,32.83
2018-12-09T21:29:54.455Z,32.37
2018-12-09T21:32:23.162Z,32.03
2018-12-09T21:34:51.714Z,32.67
2018-12-09T21:37:20.345Z,32.60
2018-12-09T21:39:49.192Z,32.61
2018-12-09T21:42:17.767Z,32.56
2018-12-09T21:44:46.452Z,32.65
2018-12-09T21:47:15.119Z,32.68
2018-12-09T21:49:43.834Z,32.01
2018-12-09T21:52:12.533Z,32.42
2018-12-09T21:54:41.210Z,32.65
2018-12-09T21:57:10.174Z,31.92
2018-12-09T21:59:39.080Z,32.53
2018-12-09T22:02:07.639Z,31.54
2018-12-09T22:04:36.255Z,32.42
2018-12-09T22:07:05.014Z,32.37
2018-12-09T22:09:33.602Z,32.42
2018-12-09T22:12:02.348Z,31.72
2018-12-09T22:14:30.980Z,32.42
2018-12-09T22:16:59.525Z,32.31
2018-12-09T22:19:28.233Z,32.00
2018-12-09T22:21:56.909Z,32.17
2018-12-09T22:24:25.521Z,31.83
2018-12-09T22:26:54.070Z,32.10
2018-12-09T22:29:22.730Z,31.63
2018-12-09T22:31:51.286Z,31.60
2018-12-09T22:34:19.711Z,31.83
2018-12-09T22:36:48.950Z,31.55
2018-12-09T22:39:17.938Z,32.17
2018-12-09T22:41:46.486Z,31.47
2018-12-09T22:44:15.066Z,32.05
2018-12-09T22:46:43.634Z,31.45
2018-12-09T22:49:12.298Z,31.54
2018-12-09T22:51:40.919Z,31.85
2018-12-09T22:54:09.594Z,31.45
2018-12-09T22:56:38.305Z,31.60
2018-12-09T22:59:07.127Z,31.41
2018-12-09T23:01:35.800Z,31.23
2018-12-09T23:04:04.528Z,31.10
2018-12-09T23:06:33.143Z,31.18
2018-12-09T23:09:01.570Z,31.85
2018-12-09T23:11:30.235Z,31.96
2018-12-09T23:13:59.013Z,31.94
2018-12-09T23:16:27.683Z,30.97
2018-12-09T23:18:56.242Z,30.98
2018-12-09T23:21:24.878Z,31.84
2018-12-09T23:23:53.578Z,31.93
2018-12-09T23:26:22.006Z,31.13
2018-12-09T23:28:50.462Z,31.15
2018-12-09T23:31:19.135Z,31.08
2018-12-09T23:33:47.811Z,31.10
2018-12-09T23:36:16.494Z,31.67
2018-12-09T23:38:45.062Z,30.95
2018-12-09T23:41:13.697Z,31.41
2018-12-09T23:43:42.403Z,31.35
2018-12-09T23:46:10.943Z,31.23
2018-12-09T23:48:39.586Z,31.02
2018-12-09T23:51:08.355Z,30.63
2018-12-09T23:53:36.906Z,31.45
2018-12-09T23:56:05.610Z,30.91
2018-12-09T23:58:34.310Z,31.28
